Espanola, Washington
Current Conditions -  °F | °C
As of 5:43 PM on Wednesday 26 Nov 2014 (Local Time) from KSKA Reporting Station
Moderate Fog Moderate Fog  
Wind Chill: 36°   Ceiling: 100
Heat Index: 36°   Visibility: 0.5mi
Dew Point: 36°   Wind: 3mph
Humidity: 100%   Direction: 100°E
Pressure: 30.05"   Gusts: NA
Location:  47.6094°N, 117.705°W
Report Text: KSKA 270143Z AUTO 10003KT 1/2SM R23/3500FT FG VV001 02/02 A3005 RMK AO2 UPE0131
Loading
Personal Weather Stations






























Interactive Weather Map New forecast layout! Learn more

10-Day Weather Forecast

Advertisements
Track Severe Weather on mobile